17°C
Porth, Newquay, Cornwall. UK  Tell A Friend
 Ad **Ad
Updated27/06/2017 18:15 
 


More METAR Reports From


Metar Station     Metar Station     Metar Station     Metar Station     Metar Station
EGBB Birmingham     EGBE Coventry     EGLL London Heathrow     EGKK London Gatwick     EGGP Liverpool
EGGW Luton     EGNX East Midlands     EGLC London City     EGCC Mancester Intl     EGSS Stanstead
Local Metars Here                                
EGBB - Birmingham Airpo, United Kingdom
Updated: 27/06/2017 17:50
Mostly Cloudy
Mostly Cloudy
 Wind from ESE
Wind: ESE 8 mph , 13 km/h, 7 kts
Temperature: 18°C
Dew Point: 13°C
Humidity: 73%
Barometer: 1004 hPa
Clouds: Mostly Cloudy
Visibility: 6 miles , 10 km
Cloud details: Partly Cloudy 610 m
Mostly Cloudy 975 m
2017/06/27 16:50 EGBB 271650Z 11007KT 080V150 9999 SCT020 BKN032 18/13 Q1004
EGBE - Coventry Airport, United Kingdom
Updated: 27/06/2017 16:50

NOT Current
Mostly Cloudy
Mostly Cloudy
 Wind from ESE
Wind: ESE 9 mph , 15 km/h, 8 kts
Temperature: 18°C
Dew Point: 15°C
Humidity: 83%
Barometer: 1005 hPa
Clouds: Mostly Cloudy
Visibility: 6 miles , 10 km
Cloud details: Few Clouds 549 m
Mostly Cloudy 1280 m
2017/06/27 15:50 EGBE 271550Z 12008KT 090V150 9999 FEW018 BKN042 18/15 Q1005
 
EGLL - London/Heathrow, United Kingdom
Updated: 27/06/2017 17:50
Light rain, Mostly cloudy
Light rain, Mostly cloudy
 Wind from NE
Wind: NE 6 mph , 9 km/h, 5 kts
Temperature: 18°C
Dew Point: 17°C
Humidity: 94%
Barometer: 1004 hPa
Summary: Light Rain
Clouds: Mostly Cloudy
Visibility: 4 miles , 6 km
Cloud details: Partly Cloudy 183 m
Mostly Cloudy 518 m
Mostly Cloudy 1036 m
2017/06/27 16:50 EGLL 271650Z AUTO 04005KT 6000 -RA SCT006 BKN017 BKN034 18/17 Q1004
EGKK - London/Gatwick A, United Kingdom
Updated: 27/06/2017 17:50
Rain, Mostly cloudy
Rain, Mostly cloudy
 Wind from E
Wind: E 3 mph , 6 km/h, 3 kts
Temperature: 18°C
Dew Point: 17°C
Humidity: 94%
Barometer: 1003 hPa
Summary: Rain
Clouds: Mostly Cloudy
Visibility: 3 miles , 5 km
Cloud details: Mostly Cloudy 183 m
2017/06/27 16:50 EGKK 271650Z 10003KT 5000 RA BKN006 18/17 Q1003
 
EGGP - Liverpool Airpor, United Kingdom
Updated: 27/06/2017 17:50
Mostly Cloudy
Mostly Cloudy
 Wind from ESE
Wind: ESE 9 mph , 15 km/h, 8 kts
Temperature: 17°C
Dew Point: 13°C
Humidity: 77%
Barometer: 1004 hPa
Clouds: Mostly Cloudy
Visibility: 6 miles , 10 km
Cloud details: Mostly Cloudy 701 m
2017/06/27 16:50 EGGP 271650Z 12008KT 9999 BKN023 17/13 Q1004
EGGW - Luton Airport, United Kingdom
Updated: 27/06/2017 17:50
Light rain, Thunderstorm
Light rain, Thunderstorm
 Wind from E
Wind: E 7 mph , 11 km/h, 6 kts
Temperature: 15°C
Dew Point: 14°C
Humidity: 94%
Barometer: 1004 hPa
Summary: Light Rain
Clouds: Thunderstorm
Visibility: 5 miles , 8 km
Cloud details: Mostly Cloudy 152 m
Overcast 457 m
2017/06/27 16:50 EGGW 271650Z AUTO 08006KT 8000 -RA BKN005/// OVC015/// //////CB 15/14 Q1004
 
EGNX - East Midlands, United Kingdom
Updated: 27/06/2017 17:20
Mostly Cloudy
Mostly Cloudy
 Wind from E
Wind: E 12 mph , 19 km/h, 10 kts
Temperature: 16°C
Dew Point: 13°C
Humidity: 83%
Barometer: 1005 hPa
Clouds: Mostly Cloudy
Visibility: 6 miles , 10 km
Cloud details: Few Clouds 396 m
Mostly Cloudy 488 m
2017/06/27 16:20 EGNX 271620Z 10010KT 9999 FEW013 BKN016 16/13 Q1005
EGLC - London City Airp, United Kingdom
Updated: 27/06/2017 17:50
Light rain, Thunderstorm
Light rain, Thunderstorm
 Wind from E
Wind: E 10 mph , 17 km/h, 9 kts
Temperature: 18°C
Dew Point: 16°C
Humidity: 88%
Barometer: 1004 hPa
Summary: Light Rain
Clouds: Thunderstorm
Visibility: 4 miles , 7 km
Cloud details: Few Clouds 274 m
Mostly Cloudy 396 m
Mostly Cloudy 1280 m
2017/06/27 16:50 EGLC 271650Z AUTO 08009KT 7000 -RA FEW009/// BKN013/// BKN042/// //////CB 18/16 Q1004
 
EGCC - Manchester Intl, United Kingdom
Updated: 27/06/2017 17:50
Overcast
Overcast
 Wind from E
Wind: E 7 mph , 11 km/h, 6 kts
Temperature: 16°C
Dew Point: 12°C
Humidity: 77%
Barometer: 1005 hPa
Clouds: Overcast
Visibility: 6 miles , 10 km
Cloud details: Partly Cloudy 610 m
Mostly Cloudy 823 m
Overcast 1341 m
2017/06/27 16:50 EGCC 271650Z AUTO 09006KT 060V170 9999 SCT020 BKN027 OVC044 16/12 Q1005 NOSIG
EGSS - Stansted Airport, United Kingdom
Updated: 27/06/2017 17:50
Light rain, Thunderstorm
Light rain, Thunderstorm
 Wind from E
Wind: E 8 mph , 13 km/h, 7 kts
Temperature: 15°C
Dew Point: 14°C
Humidity: 94%
Barometer: 1005 hPa
Summary: Light Rain
Clouds: Thunderstorm
Visibility: 6 miles , 9 km
Cloud details: Few Clouds 244 m
Mostly Cloudy 701 m
2017/06/27 16:50 EGSS 271650Z AUTO 08007KT 9000 -RA FEW008/// BKN023/// //////CB 15/14 Q1005

Metar, brief description

METAR is a format for reporting weather information. A METAR weather report is predominantly used by pilots in fulfillment of a part of a pre-flight weather briefing, and by meteorologists, who use aggregated METAR information to assist in weather forecasting.

Raw METAR is the most popular format in the world for the transmission of weather data. Each METAR report contains essential information about the current weather conditions: Temperature, Dew Point, Barometric Pressure, Wind Speed and Direction, Visibility, Clouds Cover, Current Weather (Rain, Thunderstorms, Hail, Snow and so on...), here is an example of a raw metar report for EGHQ (Newquay airport).
METAR not available